sensor_id;sensor_type;location;lat;lon;timestamp;P1;durP1;ratioP1;P2;durP2;ratioP2
78005;SDS011;67211;42.146;24.756;2023-04-24T00:00:58;8.52;;;6.05;;
78005;SDS011;67211;42.146;24.756;2023-04-24T00:03:26;7.68;;;5.35;;
78005;SDS011;67211;42.146;24.756;2023-04-24T00:05:52;12.75;;;7.45;;
78005;SDS011;67211;42.146;24.756;2023-04-24T00:08:18;9.00;;;5.88;;
78005;SDS011;67211;42.146;24.756;2023-04-24T00:10:44;8.60;;;6.00;;
78005;SDS011;67211;42.146;24.756;2023-04-24T00:13:09;10.80;;;6.38;;
78005;SDS011;67211;42.146;24.756;2023-04-24T00:15:35;10.02;;;5.88;;
78005;SDS011;67211;42.146;24.756;2023-04-24T00:18:00;11.63;;;6.40;;
78005;SDS011;67211;42.146;24.756;2023-04-24T00:20:26;8.23;;;5.55;;
78005;SDS011;67211;42.146;24.756;2023-04-24T00:22:54;7.75;;;5.55;;
78005;SDS011;67211;42.146;24.756;2023-04-24T00:25:20;9.38;;;5.80;;
78005;SDS011;67211;42.146;24.756;2023-04-24T00:27:45;7.70;;;5.93;;
78005;SDS011;67211;42.146;24.756;2023-04-24T00:30:11;11.57;;;6.72;;
78005;SDS011;67211;42.146;24.756;2023-04-24T00:32:36;7.03;;;6.05;;
78005;SDS011;67211;42.146;24.756;2023-04-24T00:35:02;10.52;;;6.50;;
78005;SDS011;67211;42.146;24.756;2023-04-24T00:37:27;9.95;;;5.85;;
78005;SDS011;67211;42.146;24.756;2023-04-24T00:39:53;9.30;;;6.20;;
78005;SDS011;67211;42.146;24.756;2023-04-24T00:42:19;7.68;;;5.65;;
78005;SDS011;67211;42.146;24.756;2023-04-24T00:44:45;9.32;;;6.10;;
78005;SDS011;67211;42.146;24.756;2023-04-24T00:47:11;7.68;;;5.35;;
78005;SDS011;67211;42.146;24.756;2023-04-24T00:49:38;10.27;;;5.50;;
78005;SDS011;67211;42.146;24.756;2023-04-24T00:52:03;12.43;;;6.40;;
78005;SDS011;67211;42.146;24.756;2023-04-24T00:54:34;10.52;;;6.13;;
78005;SDS011;67211;42.146;24.756;2023-04-24T00:57:02;10.27;;;5.80;;
78005;SDS011;67211;42.146;24.756;2023-04-24T00:59:28;9.68;;;6.28;;
78005;SDS011;67211;42.146;24.756;2023-04-24T01:01:53;10.68;;;5.93;;
78005;SDS011;67211;42.146;24.756;2023-04-24T01:04:19;10.07;;;6.25;;
78005;SDS011;67211;42.146;24.756;2023-04-24T01:06:45;11.18;;;6.85;;
78005;SDS011;67211;42.146;24.756;2023-04-24T01:09:11;9.25;;;7.70;;
78005;SDS011;67211;42.146;24.756;2023-04-24T01:11:37;11.02;;;7.38;;
78005;SDS011;67211;42.146;24.756;2023-04-24T01:14:02;9.80;;;6.15;;
78005;SDS011;67211;42.146;24.756;2023-04-24T01:16:28;9.27;;;5.93;;
78005;SDS011;67211;42.146;24.756;2023-04-24T01:18:53;11.98;;;6.60;;
78005;SDS011;67211;42.146;24.756;2023-04-24T01:21:19;9.98;;;6.47;;
78005;SDS011;67211;42.146;24.756;2023-04-24T01:23:46;10.23;;;6.72;;
78005;SDS011;67211;42.146;24.756;2023-04-24T01:26:12;13.23;;;7.32;;
78005;SDS011;67211;42.146;24.756;2023-04-24T01:28:38;7.40;;;6.60;;
78005;SDS011;67211;42.146;24.756;2023-04-24T01:31:04;11.82;;;6.28;;
78005;SDS011;67211;42.146;24.756;2023-04-24T01:33:30;11.52;;;6.70;;
78005;SDS011;67211;42.146;24.756;2023-04-24T01:35:55;15.90;;;7.25;;
78005;SDS011;67211;42.146;24.756;2023-04-24T01:38:21;14.32;;;7.68;;
78005;SDS011;67211;42.146;24.756;2023-04-24T01:40:46;11.82;;;7.35;;
78005;SDS011;67211;42.146;24.756;2023-04-24T01:43:12;11.15;;;6.78;;
78005;SDS011;67211;42.146;24.756;2023-04-24T01:45:38;10.48;;;7.40;;
78005;SDS011;67211;42.146;24.756;2023-04-24T01:48:03;10.15;;;7.15;;
78005;SDS011;67211;42.146;24.756;2023-04-24T01:50:29;12.18;;;7.72;;
78005;SDS011;67211;42.146;24.756;2023-04-24T01:52:55;14.18;;;7.72;;
78005;SDS011;67211;42.146;24.756;2023-04-24T01:55:21;16.67;;;8.68;;
78005;SDS011;67211;42.146;24.756;2023-04-24T01:57:46;17.98;;;8.60;;
78005;SDS011;67211;42.146;24.756;2023-04-24T02:00:12;16.60;;;8.95;;
78005;SDS011;67211;42.146;24.756;2023-04-24T02:02:38;14.43;;;8.60;;
78005;SDS011;67211;42.146;24.756;2023-04-24T02:05:05;15.75;;;9.77;;
78005;SDS011;67211;42.146;24.756;2023-04-24T02:07:31;11.35;;;8.00;;
78005;SDS011;67211;42.146;24.756;2023-04-24T02:09:57;12.00;;;7.18;;
78005;SDS011;67211;42.146;24.756;2023-04-24T02:12:23;12.23;;;7.97;;
78005;SDS011;67211;42.146;24.756;2023-04-24T02:14:48;10.80;;;7.75;;
78005;SDS011;67211;42.146;24.756;2023-04-24T02:17:14;10.07;;;6.47;;
78005;SDS011;67211;42.146;24.756;2023-04-24T02:19:41;10.70;;;7.35;;
78005;SDS011;67211;42.146;24.756;2023-04-24T02:22:06;11.35;;;7.03;;
78005;SDS011;67211;42.146;24.756;2023-04-24T02:24:31;13.32;;;8.43;;
78005;SDS011;67211;42.146;24.756;2023-04-24T02:26:57;10.98;;;8.38;;
78005;SDS011;67211;42.146;24.756;2023-04-24T02:29:23;12.82;;;8.60;;
78005;SDS011;67211;42.146;24.756;2023-04-24T02:31:48;11.93;;;8.70;;
78005;SDS011;67211;42.146;24.756;2023-04-24T02:34:13;11.68;;;8.45;;
78005;SDS011;67211;42.146;24.756;2023-04-24T02:36:39;10.80;;;7.57;;
78005;SDS011;67211;42.146;24.756;2023-04-24T02:39:04;11.18;;;8.07;;
78005;SDS011;67211;42.146;24.756;2023-04-24T02:41:30;14.60;;;7.05;;
78005;SDS011;67211;42.146;24.756;2023-04-24T02:44:00;10.85;;;7.35;;
78005;SDS011;67211;42.146;24.756;2023-04-24T02:46:25;11.38;;;6.90;;
78005;SDS011;67211;42.146;24.756;2023-04-24T02:48:51;10.23;;;7.65;;
78005;SDS011;67211;42.146;24.756;2023-04-24T02:51:16;8.55;;;7.57;;
78005;SDS011;67211;42.146;24.756;2023-04-24T02:53:41;9.60;;;7.28;;
78005;SDS011;67211;42.146;24.756;2023-04-24T02:56:07;11.65;;;7.35;;
78005;SDS011;67211;42.146;24.756;2023-04-24T02:58:32;14.73;;;8.20;;
78005;SDS011;67211;42.146;24.756;2023-04-24T03:00:58;11.27;;;7.43;;
78005;SDS011;67211;42.146;24.756;2023-04-24T03:03:23;11.38;;;7.30;;
78005;SDS011;67211;42.146;24.756;2023-04-24T03:05:49;9.40;;;7.63;;
78005;SDS011;67211;42.146;24.756;2023-04-24T03:08:15;10.65;;;8.35;;
78005;SDS011;67211;42.146;24.756;2023-04-24T03:10:40;10.50;;;7.80;;
78005;SDS011;67211;42.146;24.756;2023-04-24T03:13:06;11.63;;;7.55;;
78005;SDS011;67211;42.146;24.756;2023-04-24T03:15:31;11.73;;;7.20;;
78005;SDS011;67211;42.146;24.756;2023-04-24T03:17:57;13.68;;;7.63;;
78005;SDS011;67211;42.146;24.756;2023-04-24T03:20:22;12.07;;;7.75;;
78005;SDS011;67211;42.146;24.756;2023-04-24T03:22:47;13.32;;;7.28;;
78005;SDS011;67211;42.146;24.756;2023-04-24T03:25:13;11.48;;;7.35;;
78005;SDS011;67211;42.146;24.756;2023-04-24T03:27:38;9.65;;;7.20;;
78005;SDS011;67211;42.146;24.756;2023-04-24T03:30:05;11.48;;;8.32;;
78005;SDS011;67211;42.146;24.756;2023-04-24T03:32:33;11.05;;;7.00;;
78005;SDS011;67211;42.146;24.756;2023-04-24T03:34:59;10.80;;;7.40;;
78005;SDS011;67211;42.146;24.756;2023-04-24T03:37:25;12.48;;;9.70;;
78005;SDS011;67211;42.146;24.756;2023-04-24T03:39:51;11.38;;;8.10;;
78005;SDS011;67211;42.146;24.756;2023-04-24T03:42:16;11.07;;;7.95;;
78005;SDS011;67211;42.146;24.756;2023-04-24T03:44:42;11.07;;;7.28;;
78005;SDS011;67211;42.146;24.756;2023-04-24T03:47:07;13.90;;;7.38;;
78005;SDS011;67211;42.146;24.756;2023-04-24T03:49:33;12.88;;;7.43;;
78005;SDS011;67211;42.146;24.756;2023-04-24T03:51:58;13.57;;;7.95;;
78005;SDS011;67211;42.146;24.756;2023-04-24T03:54:24;10.18;;;6.88;;
78005;SDS011;67211;42.146;24.756;2023-04-24T03:56:49;8.88;;;7.18;;
78005;SDS011;67211;42.146;24.756;2023-04-24T03:59:15;11.80;;;7.70;;
78005;SDS011;67211;42.146;24.756;2023-04-24T04:01:40;10.15;;;7.75;;
78005;SDS011;67211;42.146;24.756;2023-04-24T04:04:06;10.48;;;7.18;;
78005;SDS011;67211;42.146;24.756;2023-04-24T04:06:31;11.50;;;8.18;;
78005;SDS011;67211;42.146;24.756;2023-04-24T04:08:57;10.68;;;7.78;;
78005;SDS011;67211;42.146;24.756;2023-04-24T04:11:23;10.07;;;7.47;;
78005;SDS011;67211;42.146;24.756;2023-04-24T04:13:49;9.95;;;7.47;;
78005;SDS011;67211;42.146;24.756;2023-04-24T04:16:14;17.13;;;8.45;;
78005;SDS011;67211;42.146;24.756;2023-04-24T04:18:41;12.95;;;8.23;;
78005;SDS011;67211;42.146;24.756;2023-04-24T04:21:07;19.48;;;8.35;;
78005;SDS011;67211;42.146;24.756;2023-04-24T04:23:33;21.23;;;8.45;;
78005;SDS011;67211;42.146;24.756;2023-04-24T04:25:58;14.63;;;9.00;;
78005;SDS011;67211;42.146;24.756;2023-04-24T04:28:25;17.35;;;10.25;;
78005;SDS011;67211;42.146;24.756;2023-04-24T04:30:51;16.85;;;8.63;;
78005;SDS011;67211;42.146;24.756;2023-04-24T04:33:20;11.85;;;8.25;;
78005;SDS011;67211;42.146;24.756;2023-04-24T04:35:46;15.63;;;9.55;;
78005;SDS011;67211;42.146;24.756;2023-04-24T04:38:17;22.10;;;9.48;;
78005;SDS011;67211;42.146;24.756;2023-04-24T04:40:43;15.55;;;12.07;;
78005;SDS011;67211;42.146;24.756;2023-04-24T04:43:09;13.93;;;9.38;;
78005;SDS011;67211;42.146;24.756;2023-04-24T04:45:35;12.82;;;10.07;;
78005;SDS011;67211;42.146;24.756;2023-04-24T04:48:00;14.52;;;9.75;;
78005;SDS011;67211;42.146;24.756;2023-04-24T04:50:27;16.70;;;9.50;;
78005;SDS011;67211;42.146;24.756;2023-04-24T04:52:52;12.25;;;9.20;;
78005;SDS011;67211;42.146;24.756;2023-04-24T04:55:18;12.23;;;9.20;;
78005;SDS011;67211;42.146;24.756;2023-04-24T04:57:45;14.95;;;9.95;;
78005;SDS011;67211;42.146;24.756;2023-04-24T05:00:13;11.65;;;9.50;;
78005;SDS011;67211;42.146;24.756;2023-04-24T05:02:39;14.02;;;9.10;;
78005;SDS011;67211;42.146;24.756;2023-04-24T05:05:05;14.02;;;8.88;;
78005;SDS011;67211;42.146;24.756;2023-04-24T05:07:31;15.30;;;10.18;;
78005;SDS011;67211;42.146;24.756;2023-04-24T05:09:56;18.40;;;10.02;;
78005;SDS011;67211;42.146;24.756;2023-04-24T05:12:22;13.32;;;9.20;;
78005;SDS011;67211;42.146;24.756;2023-04-24T05:14:48;18.33;;;10.85;;
78005;SDS011;67211;42.146;24.756;2023-04-24T05:17:16;13.18;;;8.93;;
78005;SDS011;67211;42.146;24.756;2023-04-24T05:19:42;12.68;;;8.43;;
78005;SDS011;67211;42.146;24.756;2023-04-24T05:22:07;15.55;;;9.65;;
78005;SDS011;67211;42.146;24.756;2023-04-24T05:24:34;16.77;;;8.88;;
78005;SDS011;67211;42.146;24.756;2023-04-24T05:27:00;13.80;;;9.45;;
78005;SDS011;67211;42.146;24.756;2023-04-24T05:29:25;14.02;;;8.90;;
78005;SDS011;67211;42.146;24.756;2023-04-24T05:31:56;13.55;;;7.85;;
78005;SDS011;67211;42.146;24.756;2023-04-24T05:34:21;9.82;;;7.55;;
78005;SDS011;67211;42.146;24.756;2023-04-24T05:36:47;10.80;;;7.00;;
78005;SDS011;67211;42.146;24.756;2023-04-24T05:39:13;11.57;;;8.52;;
78005;SDS011;67211;42.146;24.756;2023-04-24T05:41:39;10.90;;;7.32;;
78005;SDS011;67211;42.146;24.756;2023-04-24T05:44:04;11.55;;;7.35;;
78005;SDS011;67211;42.146;24.756;2023-04-24T05:46:30;12.25;;;7.65;;
78005;SDS011;67211;42.146;24.756;2023-04-24T05:48:55;14.98;;;8.43;;
78005;SDS011;67211;42.146;24.756;2023-04-24T05:51:21;20.05;;;10.38;;
78005;SDS011;67211;42.146;24.756;2023-04-24T05:53:46;16.83;;;10.15;;
78005;SDS011;67211;42.146;24.756;2023-04-24T05:56:11;11.65;;;8.80;;
78005;SDS011;67211;42.146;24.756;2023-04-24T05:58:37;12.27;;;7.47;;
78005;SDS011;67211;42.146;24.756;2023-04-24T06:01:02;16.95;;;7.55;;
78005;SDS011;67211;42.146;24.756;2023-04-24T06:03:28;9.43;;;6.53;;
78005;SDS011;67211;42.146;24.756;2023-04-24T06:05:53;12.82;;;9.02;;
78005;SDS011;67211;42.146;24.756;2023-04-24T06:08:19;12.27;;;6.65;;
78005;SDS011;67211;42.146;24.756;2023-04-24T06:10:44;9.00;;;6.70;;
78005;SDS011;67211;42.146;24.756;2023-04-24T06:13:10;10.15;;;6.95;;
78005;SDS011;67211;42.146;24.756;2023-04-24T06:15:36;9.88;;;6.47;;
78005;SDS011;67211;42.146;24.756;2023-04-24T06:18:02;11.52;;;8.35;;
78005;SDS011;67211;42.146;24.756;2023-04-24T06:20:27;9.48;;;7.45;;
78005;SDS011;67211;42.146;24.756;2023-04-24T06:22:53;13.25;;;7.20;;
78005;SDS011;67211;42.146;24.756;2023-04-24T06:25:20;12.70;;;9.98;;
78005;SDS011;67211;42.146;24.756;2023-04-24T06:27:45;11.07;;;7.82;;
78005;SDS011;67211;42.146;24.756;2023-04-24T06:30:11;11.45;;;7.53;;
78005;SDS011;67211;42.146;24.756;2023-04-24T06:32:36;10.57;;;7.05;;
78005;SDS011;67211;42.146;24.756;2023-04-24T06:35:02;13.07;;;7.38;;
78005;SDS011;67211;42.146;24.756;2023-04-24T06:37:27;9.77;;;6.55;;
78005;SDS011;67211;42.146;24.756;2023-04-24T06:39:53;10.45;;;5.88;;
78005;SDS011;67211;42.146;24.756;2023-04-24T06:42:19;10.45;;;6.03;;
78005;SDS011;67211;42.146;24.756;2023-04-24T06:44:46;7.75;;;5.43;;
78005;SDS011;67211;42.146;24.756;2023-04-24T06:47:12;9.60;;;6.70;;
78005;SDS011;67211;42.146;24.756;2023-04-24T06:49:38;9.93;;;6.65;;
78005;SDS011;67211;42.146;24.756;2023-04-24T06:52:04;8.48;;;6.00;;
78005;SDS011;67211;42.146;24.756;2023-04-24T06:54:30;10.23;;;6.72;;
78005;SDS011;67211;42.146;24.756;2023-04-24T06:56:56;9.75;;;6.63;;
78005;SDS011;67211;42.146;24.756;2023-04-24T06:59:22;11.25;;;6.53;;
78005;SDS011;67211;42.146;24.756;2023-04-24T07:01:48;13.40;;;6.47;;
78005;SDS011;67211;42.146;24.756;2023-04-24T07:04:14;12.15;;;6.90;;
78005;SDS011;67211;42.146;24.756;2023-04-24T07:06:39;10.85;;;5.90;;
78005;SDS011;67211;42.146;24.756;2023-04-24T07:09:05;12.32;;;7.10;;
78005;SDS011;67211;42.146;24.756;2023-04-24T07:11:30;10.65;;;6.70;;
78005;SDS011;67211;42.146;24.756;2023-04-24T07:13:56;10.30;;;5.80;;
78005;SDS011;67211;42.146;24.756;2023-04-24T07:16:22;10.98;;;6.93;;
78005;SDS011;67211;42.146;24.756;2023-04-24T07:18:47;11.02;;;7.03;;
78005;SDS011;67211;42.146;24.756;2023-04-24T07:21:12;9.95;;;6.35;;
78005;SDS011;67211;42.146;24.756;2023-04-24T07:23:38;10.43;;;7.03;;
78005;SDS011;67211;42.146;24.756;2023-04-24T07:26:03;10.23;;;7.10;;
78005;SDS011;67211;42.146;24.756;2023-04-24T07:28:29;11.98;;;6.90;;
78005;SDS011;67211;42.146;24.756;2023-04-24T07:30:57;11.05;;;6.82;;
78005;SDS011;67211;42.146;24.756;2023-04-24T07:33:24;11.13;;;6.50;;
78005;SDS011;67211;42.146;24.756;2023-04-24T07:35:50;12.73;;;6.80;;
78005;SDS011;67211;42.146;24.756;2023-04-24T07:38:15;11.27;;;7.65;;
78005;SDS011;67211;42.146;24.756;2023-04-24T07:40:41;11.38;;;7.15;;
78005;SDS011;67211;42.146;24.756;2023-04-24T07:43:06;13.20;;;8.98;;
78005;SDS011;67211;42.146;24.756;2023-04-24T07:45:32;11.07;;;6.57;;
78005;SDS011;67211;42.146;24.756;2023-04-24T07:48:01;9.60;;;6.55;;
78005;SDS011;67211;42.146;24.756;2023-04-24T07:50:26;16.55;;;7.30;;
78005;SDS011;67211;42.146;24.756;2023-04-24T07:52:51;9.65;;;7.07;;
78005;SDS011;67211;42.146;24.756;2023-04-24T07:55:17;10.55;;;6.30;;
78005;SDS011;67211;42.146;24.756;2023-04-24T07:57:42;12.60;;;6.85;;
78005;SDS011;67211;42.146;24.756;2023-04-24T08:00:08;15.27;;;6.68;;
78005;SDS011;67211;42.146;24.756;2023-04-24T08:02:34;10.20;;;6.70;;
78005;SDS011;67211;42.146;24.756;2023-04-24T08:04:59;8.25;;;6.43;;
78005;SDS011;67211;42.146;24.756;2023-04-24T08:07:25;9.48;;;6.47;;
78005;SDS011;67211;42.146;24.756;2023-04-24T08:09:50;10.93;;;6.47;;
78005;SDS011;67211;42.146;24.756;2023-04-24T08:12:15;12.20;;;7.00;;
78005;SDS011;67211;42.146;24.756;2023-04-24T08:14:41;10.55;;;6.63;;
78005;SDS011;67211;42.146;24.756;2023-04-24T08:17:06;10.85;;;6.47;;
78005;SDS011;67211;42.146;24.756;2023-04-24T08:19:32;10.40;;;6.30;;
78005;SDS011;67211;42.146;24.756;2023-04-24T08:21:57;9.93;;;7.00;;
78005;SDS011;67211;42.146;24.756;2023-04-24T08:24:23;10.15;;;6.68;;
78005;SDS011;67211;42.146;24.756;2023-04-24T08:26:48;9.07;;;6.85;;
78005;SDS011;67211;42.146;24.756;2023-04-24T08:29:15;9.88;;;6.95;;
78005;SDS011;67211;42.146;24.756;2023-04-24T08:31:41;9.25;;;6.18;;
78005;SDS011;67211;42.146;24.756;2023-04-24T08:34:06;10.60;;;6.65;;
78005;SDS011;67211;42.146;24.756;2023-04-24T08:36:31;10.50;;;6.03;;
78005;SDS011;67211;42.146;24.756;2023-04-24T08:38:57;9.48;;;6.05;;
78005;SDS011;67211;42.146;24.756;2023-04-24T08:41:22;12.43;;;6.50;;
78005;SDS011;67211;42.146;24.756;2023-04-24T08:43:51;9.68;;;6.47;;
78005;SDS011;67211;42.146;24.756;2023-04-24T08:46:16;10.32;;;7.35;;
78005;SDS011;67211;42.146;24.756;2023-04-24T08:48:43;10.52;;;7.05;;
78005;SDS011;67211;42.146;24.756;2023-04-24T08:51:09;8.50;;;6.00;;
78005;SDS011;67211;42.146;24.756;2023-04-24T08:53:35;14.55;;;6.45;;
78005;SDS011;67211;42.146;24.756;2023-04-24T08:56:00;10.77;;;7.88;;
78005;SDS011;67211;42.146;24.756;2023-04-24T08:58:27;10.85;;;6.55;;
78005;SDS011;67211;42.146;24.756;2023-04-24T09:00:56;9.27;;;5.43;;
78005;SDS011;67211;42.146;24.756;2023-04-24T09:03:22;17.80;;;7.68;;
78005;SDS011;67211;42.146;24.756;2023-04-24T09:05:48;8.98;;;6.53;;
78005;SDS011;67211;42.146;24.756;2023-04-24T09:08:16;9.30;;;6.47;;
78005;SDS011;67211;42.146;24.756;2023-04-24T09:10:43;11.15;;;6.50;;
78005;SDS011;67211;42.146;24.756;2023-04-24T09:13:08;8.73;;;6.30;;
78005;SDS011;67211;42.146;24.756;2023-04-24T09:15:35;8.40;;;5.95;;
78005;SDS011;67211;42.146;24.756;2023-04-24T09:18:01;8.05;;;6.43;;
78005;SDS011;67211;42.146;24.756;2023-04-24T09:20:27;11.27;;;6.78;;
78005;SDS011;67211;42.146;24.756;2023-04-24T09:22:56;8.23;;;6.60;;
78005;SDS011;67211;42.146;24.756;2023-04-24T09:25:22;10.77;;;6.80;;
78005;SDS011;67211;42.146;24.756;2023-04-24T09:27:47;12.05;;;7.60;;
78005;SDS011;67211;42.146;24.756;2023-04-24T09:30:13;9.00;;;6.68;;
78005;SDS011;67211;42.146;24.756;2023-04-24T09:32:39;11.27;;;7.05;;
78005;SDS011;67211;42.146;24.756;2023-04-24T09:35:12;13.18;;;7.55;;
78005;SDS011;67211;42.146;24.756;2023-04-24T09:37:40;9.38;;;6.82;;
78005;SDS011;67211;42.146;24.756;2023-04-24T09:40:15;9.75;;;6.65;;
78005;SDS011;67211;42.146;24.756;2023-04-24T09:42:52;10.85;;;7.03;;
78005;SDS011;67211;42.146;24.756;2023-04-24T09:45:19;11.15;;;6.72;;
78005;SDS011;67211;42.146;24.756;2023-04-24T09:47:45;11.40;;;7.20;;
78005;SDS011;67211;42.146;24.756;2023-04-24T09:52:40;13.32;;;7.97;;
78005;SDS011;67211;42.146;24.756;2023-04-24T09:55:11;10.00;;;7.90;;
78005;SDS011;67211;42.146;24.756;2023-04-24T09:57:50;10.68;;;6.95;;
78005;SDS011;67211;42.146;24.756;2023-04-24T10:03:04;9.57;;;6.63;;
78005;SDS011;67211;42.146;24.756;2023-04-24T10:05:35;9.38;;;6.90;;
78005;SDS011;67211;42.146;24.756;2023-04-24T10:10:31;10.60;;;7.60;;
78005;SDS011;67211;42.146;24.756;2023-04-24T10:12:58;11.25;;;7.57;;
78005;SDS011;67211;42.146;24.756;2023-04-24T10:15:25;11.55;;;8.10;;
78005;SDS011;67211;42.146;24.756;2023-04-24T10:17:51;13.45;;;8.07;;
78005;SDS011;67211;42.146;24.756;2023-04-24T10:20:27;8.65;;;6.38;;
78005;SDS011;67211;42.146;24.756;2023-04-24T10:22:56;8.20;;;6.00;;
78005;SDS011;67211;42.146;24.756;2023-04-24T10:25:23;11.25;;;7.10;;
78005;SDS011;67211;42.146;24.756;2023-04-24T10:27:51;11.45;;;7.00;;
78005;SDS011;67211;42.146;24.756;2023-04-24T10:30:20;8.90;;;7.30;;
78005;SDS011;67211;42.146;24.756;2023-04-24T10:32:46;7.72;;;5.60;;
78005;SDS011;67211;42.146;24.756;2023-04-24T10:35:12;8.32;;;5.35;;
78005;SDS011;67211;42.146;24.756;2023-04-24T10:37:53;8.75;;;5.95;;
78005;SDS011;67211;42.146;24.756;2023-04-24T10:40:25;9.82;;;6.72;;
78005;SDS011;67211;42.146;24.756;2023-04-24T10:42:53;10.05;;;7.53;;
78005;SDS011;67211;42.146;24.756;2023-04-24T10:45:20;12.65;;;7.15;;
78005;SDS011;67211;42.146;24.756;2023-04-24T10:47:56;9.85;;;6.60;;
78005;SDS011;67211;42.146;24.756;2023-04-24T10:50:22;6.88;;;5.40;;
78005;SDS011;67211;42.146;24.756;2023-04-24T10:52:47;8.70;;;5.65;;
78005;SDS011;67211;42.146;24.756;2023-04-24T10:55:16;9.02;;;5.30;;
78005;SDS011;67211;42.146;24.756;2023-04-24T10:58:00;7.05;;;5.20;;
78005;SDS011;67211;42.146;24.756;2023-04-24T11:00:29;8.10;;;5.10;;
78005;SDS011;67211;42.146;24.756;2023-04-24T11:02:54;11.27;;;5.95;;
78005;SDS011;67211;42.146;24.756;2023-04-24T11:05:21;9.38;;;5.35;;
78005;SDS011;67211;42.146;24.756;2023-04-24T11:10:40;10.55;;;5.57;;
78005;SDS011;67211;42.146;24.756;2023-04-24T11:13:09;8.88;;;5.57;;
78005;SDS011;67211;42.146;24.756;2023-04-24T11:15:34;10.20;;;5.22;;
78005;SDS011;67211;42.146;24.756;2023-04-24T11:18:00;8.07;;;5.10;;
78005;SDS011;67211;42.146;24.756;2023-04-24T11:20:25;6.50;;;5.05;;
78005;SDS011;67211;42.146;24.756;2023-04-24T11:22:52;7.25;;;5.20;;
78005;SDS011;67211;42.146;24.756;2023-04-24T11:25:22;8.13;;;5.18;;
78005;SDS011;67211;42.146;24.756;2023-04-24T11:27:48;6.28;;;4.68;;
78005;SDS011;67211;42.146;24.756;2023-04-24T11:30:18;6.57;;;4.90;;
78005;SDS011;67211;42.146;24.756;2023-04-24T11:32:47;7.60;;;5.50;;
78005;SDS011;67211;42.146;24.756;2023-04-24T11:37:44;6.97;;;5.32;;
78005;SDS011;67211;42.146;24.756;2023-04-24T11:40:12;6.85;;;5.38;;
78005;SDS011;67211;42.146;24.756;2023-04-24T11:42:41;8.07;;;5.38;;
78005;SDS011;67211;42.146;24.756;2023-04-24T11:47:34;8.18;;;5.20;;
78005;SDS011;67211;42.146;24.756;2023-04-24T11:50:00;8.13;;;5.00;;
78005;SDS011;67211;42.146;24.756;2023-04-24T11:52:26;7.97;;;5.70;;
78005;SDS011;67211;42.146;24.756;2023-04-24T11:54:52;8.13;;;4.95;;
78005;SDS011;67211;42.146;24.756;2023-04-24T11:57:21;6.78;;;5.30;;
78005;SDS011;67211;42.146;24.756;2023-04-24T11:59:47;8.52;;;4.93;;
78005;SDS011;67211;42.146;24.756;2023-04-24T12:02:34;7.55;;;5.07;;
78005;SDS011;67211;42.146;24.756;2023-04-24T12:04:59;5.80;;;4.78;;
78005;SDS011;67211;42.146;24.756;2023-04-24T12:07:24;7.32;;;5.25;;
78005;SDS011;67211;42.146;24.756;2023-04-24T12:09:55;5.57;;;4.88;;
78005;SDS011;67211;42.146;24.756;2023-04-24T12:12:23;6.97;;;4.97;;
78005;SDS011;67211;42.146;24.756;2023-04-24T12:14:57;5.80;;;4.70;;
78005;SDS011;67211;42.146;24.756;2023-04-24T12:17:27;7.85;;;5.20;;
78005;SDS011;67211;42.146;24.756;2023-04-24T12:19:57;8.73;;;5.00;;
78005;SDS011;67211;42.146;24.756;2023-04-24T12:22:23;5.63;;;4.55;;
78005;SDS011;67211;42.146;24.756;2023-04-24T12:24:58;8.23;;;4.80;;
78005;SDS011;67211;42.146;24.756;2023-04-24T12:27:31;6.53;;;5.15;;
78005;SDS011;67211;42.146;24.756;2023-04-24T12:29:58;7.65;;;4.95;;
78005;SDS011;67211;42.146;24.756;2023-04-24T12:32:25;6.60;;;4.65;;
78005;SDS011;67211;42.146;24.756;2023-04-24T12:34:51;8.00;;;5.10;;
78005;SDS011;67211;42.146;24.756;2023-04-24T12:37:20;7.05;;;4.78;;
78005;SDS011;67211;42.146;24.756;2023-04-24T12:42:29;7.10;;;5.30;;
78005;SDS011;67211;42.146;24.756;2023-04-24T12:44:59;6.10;;;4.97;;
78005;SDS011;67211;42.146;24.756;2023-04-24T12:47:25;8.02;;;4.47;;
78005;SDS011;67211;42.146;24.756;2023-04-24T12:49:51;7.15;;;5.00;;
78005;SDS011;67211;42.146;24.756;2023-04-24T12:52:20;8.15;;;4.97;;
78005;SDS011;67211;42.146;24.756;2023-04-24T12:54:45;6.18;;;4.85;;
78005;SDS011;67211;42.146;24.756;2023-04-24T12:57:11;6.50;;;5.45;;
78005;SDS011;67211;42.146;24.756;2023-04-24T12:59:37;6.15;;;4.60;;
78005;SDS011;67211;42.146;24.756;2023-04-24T13:02:04;7.93;;;5.22;;
78005;SDS011;67211;42.146;24.756;2023-04-24T13:04:29;6.75;;;4.65;;
78005;SDS011;67211;42.146;24.756;2023-04-24T13:06:55;9.10;;;4.20;;
78005;SDS011;67211;42.146;24.756;2023-04-24T13:09:20;7.85;;;4.72;;
78005;SDS011;67211;42.146;24.756;2023-04-24T13:11:46;6.70;;;5.15;;
78005;SDS011;67211;42.146;24.756;2023-04-24T13:14:11;7.22;;;4.40;;
78005;SDS011;67211;42.146;24.756;2023-04-24T13:16:36;8.82;;;4.55;;
78005;SDS011;67211;42.146;24.756;2023-04-24T13:19:02;5.68;;;4.50;;
78005;SDS011;67211;42.146;24.756;2023-04-24T13:21:27;9.05;;;4.45;;
78005;SDS011;67211;42.146;24.756;2023-04-24T13:23:55;5.78;;;4.70;;
78005;SDS011;67211;42.146;24.756;2023-04-24T13:26:21;7.68;;;4.95;;
78005;SDS011;67211;42.146;24.756;2023-04-24T13:28:46;7.32;;;5.07;;
78005;SDS011;67211;42.146;24.756;2023-04-24T13:31:11;7.95;;;4.93;;
78005;SDS011;67211;42.146;24.756;2023-04-24T13:33:38;7.30;;;4.95;;
78005;SDS011;67211;42.146;24.756;2023-04-24T13:36:04;5.78;;;4.47;;
78005;SDS011;67211;42.146;24.756;2023-04-24T13:38:29;6.78;;;4.53;;
78005;SDS011;67211;42.146;24.756;2023-04-24T13:40:54;5.97;;;5.32;;
78005;SDS011;67211;42.146;24.756;2023-04-24T13:43:20;7.28;;;4.72;;
78005;SDS011;67211;42.146;24.756;2023-04-24T13:45:45;6.40;;;4.25;;
78005;SDS011;67211;42.146;24.756;2023-04-24T13:48:11;5.88;;;4.95;;
78005;SDS011;67211;42.146;24.756;2023-04-24T13:50:36;4.97;;;4.22;;
78005;SDS011;67211;42.146;24.756;2023-04-24T13:53:02;6.45;;;5.00;;
78005;SDS011;67211;42.146;24.756;2023-04-24T13:55:28;6.70;;;4.80;;
78005;SDS011;67211;42.146;24.756;2023-04-24T13:57:53;8.30;;;5.03;;
78005;SDS011;67211;42.146;24.756;2023-04-24T14:00:20;7.05;;;4.35;;
78005;SDS011;67211;42.146;24.756;2023-04-24T14:02:46;6.10;;;4.35;;
78005;SDS011;67211;42.146;24.756;2023-04-24T14:05:12;7.05;;;4.25;;
78005;SDS011;67211;42.146;24.756;2023-04-24T14:07:41;7.35;;;4.43;;
78005;SDS011;67211;42.146;24.756;2023-04-24T14:10:07;5.10;;;4.20;;
78005;SDS011;67211;42.146;24.756;2023-04-24T14:12:33;6.07;;;4.47;;
78005;SDS011;67211;42.146;24.756;2023-04-24T14:14:58;6.65;;;4.32;;
78005;SDS011;67211;42.146;24.756;2023-04-24T14:17:24;5.20;;;3.78;;
78005;SDS011;67211;42.146;24.756;2023-04-24T14:19:49;6.28;;;4.72;;
78005;SDS011;67211;42.146;24.756;2023-04-24T14:22:16;9.05;;;4.65;;
78005;SDS011;67211;42.146;24.756;2023-04-24T14:24:42;5.05;;;4.00;;
78005;SDS011;67211;42.146;24.756;2023-04-24T14:27:07;5.00;;;3.92;;
78005;SDS011;67211;42.146;24.756;2023-04-24T14:29:33;4.95;;;4.13;;
78005;SDS011;67211;42.146;24.756;2023-04-24T14:32:00;12.27;;;5.75;;
78005;SDS011;67211;42.146;24.756;2023-04-24T14:34:25;5.40;;;4.72;;
78005;SDS011;67211;42.146;24.756;2023-04-24T14:36:51;5.50;;;4.28;;
78005;SDS011;67211;42.146;24.756;2023-04-24T14:39:17;7.70;;;4.15;;